sensor_id;sensor_type;location;lat;lon;timestamp;temperature;humidity
52787;DHT22;38661;53.152;5.846;2023-11-21T00:01:54;10.10;97.20
52787;DHT22;38661;53.152;5.846;2023-11-21T00:04:20;10.10;97.30
52787;DHT22;38661;53.152;5.846;2023-11-21T00:06:46;10.10;97.30
52787;DHT22;38661;53.152;5.846;2023-11-21T00:09:13;10.10;97.40
52787;DHT22;38661;53.152;5.846;2023-11-21T00:11:41;10.10;97.40
52787;DHT22;38661;53.152;5.846;2023-11-21T00:14:07;10.10;97.40
52787;DHT22;38661;53.152;5.846;2023-11-21T00:16:34;10.10;97.40
52787;DHT22;38661;53.152;5.846;2023-11-21T00:18:59;10.10;97.50
52787;DHT22;38661;53.152;5.846;2023-11-21T00:21:25;10.20;97.60
52787;DHT22;38661;53.152;5.846;2023-11-21T00:23:51;10.10;97.60
52787;DHT22;38661;53.152;5.846;2023-11-21T00:26:17;10.10;97.60
52787;DHT22;38661;53.152;5.846;2023-11-21T00:28:42;10.10;97.70
52787;DHT22;38661;53.152;5.846;2023-11-21T00:31:08;10.10;97.70
52787;DHT22;38661;53.152;5.846;2023-11-21T00:33:34;10.10;97.70
52787;DHT22;38661;53.152;5.846;2023-11-21T00:35:59;10.10;97.80
52787;DHT22;38661;53.152;5.846;2023-11-21T00:38:26;10.20;97.80
52787;DHT22;38661;53.152;5.846;2023-11-21T00:40:53;10.10;97.90
52787;DHT22;38661;53.152;5.846;2023-11-21T00:43:22;10.10;97.90
52787;DHT22;38661;53.152;5.846;2023-11-21T00:45:48;10.10;97.90
52787;DHT22;38661;53.152;5.846;2023-11-21T00:48:17;10.20;98.00
52787;DHT22;38661;53.152;5.846;2023-11-21T00:50:44;10.10;98.00
52787;DHT22;38661;53.152;5.846;2023-11-21T00:53:09;10.10;98.00
52787;DHT22;38661;53.152;5.846;2023-11-21T00:55:36;10.10;98.10
52787;DHT22;38661;53.152;5.846;2023-11-21T00:58:05;10.10;98.10
52787;DHT22;38661;53.152;5.846;2023-11-21T01:00:35;10.10;98.10
52787;DHT22;38661;53.152;5.846;2023-11-21T01:03:00;10.10;98.10
52787;DHT22;38661;53.152;5.846;2023-11-21T01:05:26;10.10;98.20
52787;DHT22;38661;53.152;5.846;2023-11-21T01:07:52;10.20;98.30
52787;DHT22;38661;53.152;5.846;2023-11-21T01:10:18;10.20;98.20
52787;DHT22;38661;53.152;5.846;2023-11-21T01:12:44;10.20;98.20
52787;DHT22;38661;53.152;5.846;2023-11-21T01:15:09;10.20;98.20
52787;DHT22;38661;53.152;5.846;2023-11-21T01:17:37;10.20;98.20
52787;DHT22;38661;53.152;5.846;2023-11-21T01:20:04;10.20;98.30
52787;DHT22;38661;53.152;5.846;2023-11-21T01:22:37;10.20;98.30
52787;DHT22;38661;53.152;5.846;2023-11-21T01:25:03;10.20;98.30
52787;DHT22;38661;53.152;5.846;2023-11-21T01:27:33;10.20;98.30
52787;DHT22;38661;53.152;5.846;2023-11-21T01:29:59;10.20;98.30
52787;DHT22;38661;53.152;5.846;2023-11-21T01:32:25;10.20;98.30
52787;DHT22;38661;53.152;5.846;2023-11-21T01:34:51;10.20;98.30
52787;DHT22;38661;53.152;5.846;2023-11-21T01:37:16;10.20;98.40
52787;DHT22;38661;53.152;5.846;2023-11-21T01:39:43;10.20;98.40
52787;DHT22;38661;53.152;5.846;2023-11-21T01:42:09;10.20;98.40
52787;DHT22;38661;53.152;5.846;2023-11-21T01:44:36;10.20;98.40
52787;DHT22;38661;53.152;5.846;2023-11-21T01:47:02;10.20;98.40
52787;DHT22;38661;53.152;5.846;2023-11-21T01:49:32;10.20;98.50
52787;DHT22;38661;53.152;5.846;2023-11-21T01:51:59;10.30;98.40
52787;DHT22;38661;53.152;5.846;2023-11-21T01:54:25;10.30;98.50
52787;DHT22;38661;53.152;5.846;2023-11-21T01:56:51;10.30;98.50
52787;DHT22;38661;53.152;5.846;2023-11-21T01:59:21;10.30;98.50
52787;DHT22;38661;53.152;5.846;2023-11-21T02:01:47;10.30;98.50
52787;DHT22;38661;53.152;5.846;2023-11-21T02:04:14;10.30;98.50
52787;DHT22;38661;53.152;5.846;2023-11-21T02:06:40;10.40;98.50
52787;DHT22;38661;53.152;5.846;2023-11-21T02:09:05;10.40;98.50
52787;DHT22;38661;53.152;5.846;2023-11-21T02:11:31;10.40;98.50
52787;DHT22;38661;53.152;5.846;2023-11-21T02:14:00;10.40;98.50
52787;DHT22;38661;53.152;5.846;2023-11-21T02:16:26;10.50;98.50
52787;DHT22;38661;53.152;5.846;2023-11-21T02:18:52;10.50;98.50
52787;DHT22;38661;53.152;5.846;2023-11-21T02:21:18;10.50;98.50
52787;DHT22;38661;53.152;5.846;2023-11-21T02:23:45;10.50;98.50
52787;DHT22;38661;53.152;5.846;2023-11-21T02:26:12;10.50;98.50
52787;DHT22;38661;53.152;5.846;2023-11-21T02:28:39;10.50;98.50
52787;DHT22;38661;53.152;5.846;2023-11-21T02:31:06;10.50;98.50
52787;DHT22;38661;53.152;5.846;2023-11-21T02:33:33;10.50;98.50
52787;DHT22;38661;53.152;5.846;2023-11-21T02:36:00;10.50;98.50
52787;DHT22;38661;53.152;5.846;2023-11-21T02:38:26;10.50;98.50
52787;DHT22;38661;53.152;5.846;2023-11-21T02:40:52;10.60;98.50
52787;DHT22;38661;53.152;5.846;2023-11-21T02:43:17;10.60;98.50
52787;DHT22;38661;53.152;5.846;2023-11-21T02:45:43;10.60;98.50
52787;DHT22;38661;53.152;5.846;2023-11-21T02:48:09;10.60;98.60
52787;DHT22;38661;53.152;5.846;2023-11-21T02:50:35;10.50;98.60
52787;DHT22;38661;53.152;5.846;2023-11-21T02:53:04;10.50;98.60
52787;DHT22;38661;53.152;5.846;2023-11-21T02:55:31;10.60;98.60
52787;DHT22;38661;53.152;5.846;2023-11-21T02:58:00;10.60;98.60
52787;DHT22;38661;53.152;5.846;2023-11-21T03:00:26;10.50;98.60
52787;DHT22;38661;53.152;5.846;2023-11-21T03:02:52;10.60;98.60
52787;DHT22;38661;53.152;5.846;2023-11-21T03:05:18;10.60;98.60
52787;DHT22;38661;53.152;5.846;2023-11-21T03:07:44;10.60;98.60
52787;DHT22;38661;53.152;5.846;2023-11-21T03:10:10;10.70;98.60
52787;DHT22;38661;53.152;5.846;2023-11-21T03:12:37;10.60;98.60
52787;DHT22;38661;53.152;5.846;2023-11-21T03:15:07;10.70;98.50
52787;DHT22;38661;53.152;5.846;2023-11-21T03:17:33;10.60;98.50
52787;DHT22;38661;53.152;5.846;2023-11-21T03:20:01;10.60;98.50
52787;DHT22;38661;53.152;5.846;2023-11-21T03:22:29;10.60;98.50
52787;DHT22;38661;53.152;5.846;2023-11-21T03:24:55;10.60;98.50
52787;DHT22;38661;53.152;5.846;2023-11-21T03:27:20;10.60;98.50
52787;DHT22;38661;53.152;5.846;2023-11-21T03:29:47;10.60;98.50
52787;DHT22;38661;53.152;5.846;2023-11-21T03:32:13;10.60;98.50
52787;DHT22;38661;53.152;5.846;2023-11-21T03:34:54;10.60;98.50
52787;DHT22;38661;53.152;5.846;2023-11-21T03:37:21;10.60;98.50
52787;DHT22;38661;53.152;5.846;2023-11-21T03:39:46;10.60;98.40
52787;DHT22;38661;53.152;5.846;2023-11-21T03:42:12;10.50;98.40
52787;DHT22;38661;53.152;5.846;2023-11-21T03:44:38;10.50;98.40
52787;DHT22;38661;53.152;5.846;2023-11-21T03:47:04;10.50;98.40
52787;DHT22;38661;53.152;5.846;2023-11-21T03:49:30;10.50;98.40
52787;DHT22;38661;53.152;5.846;2023-11-21T03:51:56;10.50;98.40
52787;DHT22;38661;53.152;5.846;2023-11-21T03:54:22;10.40;98.30
52787;DHT22;38661;53.152;5.846;2023-11-21T03:56:49;10.40;98.40
52787;DHT22;38661;53.152;5.846;2023-11-21T03:59:14;10.50;98.40
52787;DHT22;38661;53.152;5.846;2023-11-21T04:01:40;10.40;98.30
52787;DHT22;38661;53.152;5.846;2023-11-21T04:04:06;10.40;98.30
52787;DHT22;38661;53.152;5.846;2023-11-21T04:06:32;10.40;98.40
52787;DHT22;38661;53.152;5.846;2023-11-21T04:08:58;10.40;98.40
52787;DHT22;38661;53.152;5.846;2023-11-21T04:11:24;10.40;98.40
52787;DHT22;38661;53.152;5.846;2023-11-21T04:13:50;10.40;98.40
52787;DHT22;38661;53.152;5.846;2023-11-21T04:16:15;10.40;98.40
52787;DHT22;38661;53.152;5.846;2023-11-21T04:18:41;10.40;98.30
52787;DHT22;38661;53.152;5.846;2023-11-21T04:21:07;10.40;98.30
52787;DHT22;38661;53.152;5.846;2023-11-21T04:23:33;10.30;98.30
52787;DHT22;38661;53.152;5.846;2023-11-21T04:26:00;10.30;98.30
52787;DHT22;38661;53.152;5.846;2023-11-21T04:28:28;10.30;98.30
52787;DHT22;38661;53.152;5.846;2023-11-21T04:30:54;10.30;98.30
52787;DHT22;38661;53.152;5.846;2023-11-21T04:33:20;10.30;98.30
52787;DHT22;38661;53.152;5.846;2023-11-21T04:35:47;10.40;98.30
52787;DHT22;38661;53.152;5.846;2023-11-21T04:38:13;10.30;98.20
52787;DHT22;38661;53.152;5.846;2023-11-21T04:40:38;10.30;98.30
52787;DHT22;38661;53.152;5.846;2023-11-21T04:43:04;10.30;98.20
52787;DHT22;38661;53.152;5.846;2023-11-21T04:45:30;10.30;98.20
52787;DHT22;38661;53.152;5.846;2023-11-21T04:47:55;10.30;98.30
52787;DHT22;38661;53.152;5.846;2023-11-21T04:50:21;10.30;98.20
52787;DHT22;38661;53.152;5.846;2023-11-21T04:52:47;10.30;98.20
52787;DHT22;38661;53.152;5.846;2023-11-21T04:55:13;10.30;98.20
52787;DHT22;38661;53.152;5.846;2023-11-21T04:57:39;10.30;98.30
52787;DHT22;38661;53.152;5.846;2023-11-21T05:00:09;10.20;98.20
52787;DHT22;38661;53.152;5.846;2023-11-21T05:02:35;10.30;98.30
52787;DHT22;38661;53.152;5.846;2023-11-21T05:05:01;10.30;98.20
52787;DHT22;38661;53.152;5.846;2023-11-21T05:07:27;10.30;98.20
52787;DHT22;38661;53.152;5.846;2023-11-21T05:09:55;10.30;98.20
52787;DHT22;38661;53.152;5.846;2023-11-21T05:12:22;10.30;98.20
52787;DHT22;38661;53.152;5.846;2023-11-21T05:14:51;10.30;98.20
52787;DHT22;38661;53.152;5.846;2023-11-21T05:17:17;10.30;98.10
52787;DHT22;38661;53.152;5.846;2023-11-21T05:19:42;10.30;98.10
52787;DHT22;38661;53.152;5.846;2023-11-21T05:22:11;10.30;98.10
52787;DHT22;38661;53.152;5.846;2023-11-21T05:24:37;10.20;98.00
52787;DHT22;38661;53.152;5.846;2023-11-21T05:27:04;10.30;98.00
52787;DHT22;38661;53.152;5.846;2023-11-21T05:29:30;10.20;98.00
52787;DHT22;38661;53.152;5.846;2023-11-21T05:31:56;10.10;97.90
52787;DHT22;38661;53.152;5.846;2023-11-21T05:34:22;10.10;98.00
52787;DHT22;38661;53.152;5.846;2023-11-21T05:36:50;10.10;98.00
52787;DHT22;38661;53.152;5.846;2023-11-21T05:39:15;10.10;97.90
52787;DHT22;38661;53.152;5.846;2023-11-21T05:41:43;10.10;98.00
52787;DHT22;38661;53.152;5.846;2023-11-21T05:44:08;10.10;97.90
52787;DHT22;38661;53.152;5.846;2023-11-21T05:46:34;10.00;97.90
52787;DHT22;38661;53.152;5.846;2023-11-21T05:49:00;10.00;98.00
52787;DHT22;38661;53.152;5.846;2023-11-21T05:51:26;10.00;98.00
52787;DHT22;38661;53.152;5.846;2023-11-21T05:53:51;10.00;98.00
52787;DHT22;38661;53.152;5.846;2023-11-21T05:56:17;10.00;98.00
52787;DHT22;38661;53.152;5.846;2023-11-21T05:58:43;10.00;97.90
52787;DHT22;38661;53.152;5.846;2023-11-21T06:01:09;10.00;97.90
52787;DHT22;38661;53.152;5.846;2023-11-21T06:03:38;10.00;97.80
52787;DHT22;38661;53.152;5.846;2023-11-21T06:06:04;10.00;97.80
52787;DHT22;38661;53.152;5.846;2023-11-21T06:08:30;9.90;97.80
52787;DHT22;38661;53.152;5.846;2023-11-21T06:10:56;9.90;97.70
52787;DHT22;38661;53.152;5.846;2023-11-21T06:13:21;9.80;97.60
52787;DHT22;38661;53.152;5.846;2023-11-21T06:15:50;9.90;97.70
52787;DHT22;38661;53.152;5.846;2023-11-21T06:18:17;9.90;97.70
52787;DHT22;38661;53.152;5.846;2023-11-21T06:20:45;9.90;97.70
52787;DHT22;38661;53.152;5.846;2023-11-21T06:23:11;9.80;97.60
52787;DHT22;38661;53.152;5.846;2023-11-21T06:25:37;9.90;97.70
52787;DHT22;38661;53.152;5.846;2023-11-21T06:28:03;9.80;97.60
52787;DHT22;38661;53.152;5.846;2023-11-21T06:30:29;9.80;97.60
52787;DHT22;38661;53.152;5.846;2023-11-21T06:32:55;9.80;97.70
52787;DHT22;38661;53.152;5.846;2023-11-21T06:35:21;9.80;97.70
52787;DHT22;38661;53.152;5.846;2023-11-21T06:37:47;9.80;97.70
52787;DHT22;38661;53.152;5.846;2023-11-21T06:40:14;9.80;97.70
52787;DHT22;38661;53.152;5.846;2023-11-21T06:42:44;9.80;97.80
52787;DHT22;38661;53.152;5.846;2023-11-21T06:45:10;9.70;97.80
52787;DHT22;38661;53.152;5.846;2023-11-21T06:47:36;9.70;97.80
52787;DHT22;38661;53.152;5.846;2023-11-21T06:50:03;9.80;97.90
52787;DHT22;38661;53.152;5.846;2023-11-21T06:52:29;9.70;97.80
52787;DHT22;38661;53.152;5.846;2023-11-21T06:54:55;9.80;97.90
52787;DHT22;38661;53.152;5.846;2023-11-21T06:57:23;9.70;97.90
52787;DHT22;38661;53.152;5.846;2023-11-21T06:59:48;9.80;97.90
52787;DHT22;38661;53.152;5.846;2023-11-21T07:02:16;9.70;97.90
52787;DHT22;38661;53.152;5.846;2023-11-21T07:04:45;9.70;97.90
52787;DHT22;38661;53.152;5.846;2023-11-21T07:07:11;9.70;97.90
52787;DHT22;38661;53.152;5.846;2023-11-21T07:09:38;9.70;97.90
52787;DHT22;38661;53.152;5.846;2023-11-21T07:12:04;9.70;97.90
52787;DHT22;38661;53.152;5.846;2023-11-21T07:14:33;9.70;98.00
52787;DHT22;38661;53.152;5.846;2023-11-21T07:16:59;9.70;97.90
52787;DHT22;38661;53.152;5.846;2023-11-21T07:19:24;9.70;97.90
52787;DHT22;38661;53.152;5.846;2023-11-21T07:21:50;9.70;97.90
52787;DHT22;38661;53.152;5.846;2023-11-21T07:24:17;9.60;97.90
52787;DHT22;38661;53.152;5.846;2023-11-21T07:26:42;9.60;97.90
52787;DHT22;38661;53.152;5.846;2023-11-21T07:29:08;9.60;97.90
52787;DHT22;38661;53.152;5.846;2023-11-21T07:31:34;9.60;97.90
52787;DHT22;38661;53.152;5.846;2023-11-21T07:34:00;9.60;97.90
52787;DHT22;38661;53.152;5.846;2023-11-21T07:36:26;9.60;97.90
52787;DHT22;38661;53.152;5.846;2023-11-21T07:38:52;9.60;97.90
52787;DHT22;38661;53.152;5.846;2023-11-21T07:41:18;9.60;97.80
52787;DHT22;38661;53.152;5.846;2023-11-21T07:43:44;9.50;97.80
52787;DHT22;38661;53.152;5.846;2023-11-21T07:46:11;9.50;97.70
52787;DHT22;38661;53.152;5.846;2023-11-21T07:48:40;9.50;97.50
52787;DHT22;38661;53.152;5.846;2023-11-21T07:51:08;9.40;97.50
52787;DHT22;38661;53.152;5.846;2023-11-21T07:53:34;9.40;97.50
52787;DHT22;38661;53.152;5.846;2023-11-21T07:56:04;9.40;97.50
52787;DHT22;38661;53.152;5.846;2023-11-21T07:58:30;9.40;97.50
52787;DHT22;38661;53.152;5.846;2023-11-21T08:00:59;9.40;97.50
52787;DHT22;38661;53.152;5.846;2023-11-21T08:03:25;9.30;97.40
52787;DHT22;38661;53.152;5.846;2023-11-21T08:05:52;9.30;97.40
52787;DHT22;38661;53.152;5.846;2023-11-21T08:08:18;9.30;97.40
52787;DHT22;38661;53.152;5.846;2023-11-21T08:10:44;9.30;97.30
52787;DHT22;38661;53.152;5.846;2023-11-21T08:13:22;9.30;97.30
52787;DHT22;38661;53.152;5.846;2023-11-21T08:15:48;9.30;97.30
52787;DHT22;38661;53.152;5.846;2023-11-21T08:18:13;9.30;97.30
52787;DHT22;38661;53.152;5.846;2023-11-21T08:20:40;9.30;97.30
52787;DHT22;38661;53.152;5.846;2023-11-21T08:23:06;9.30;97.30
52787;DHT22;38661;53.152;5.846;2023-11-21T08:25:32;9.30;97.20
52787;DHT22;38661;53.152;5.846;2023-11-21T08:28:00;9.30;97.20
52787;DHT22;38661;53.152;5.846;2023-11-21T08:30:26;9.30;97.20
52787;DHT22;38661;53.152;5.846;2023-11-21T08:32:54;9.30;97.20
52787;DHT22;38661;53.152;5.846;2023-11-21T08:35:24;9.30;97.20
52787;DHT22;38661;53.152;5.846;2023-11-21T08:37:53;9.30;97.20
52787;DHT22;38661;53.152;5.846;2023-11-21T08:40:19;9.30;97.20
52787;DHT22;38661;53.152;5.846;2023-11-21T08:42:46;9.30;97.00
52787;DHT22;38661;53.152;5.846;2023-11-21T08:45:16;9.30;97.10
52787;DHT22;38661;53.152;5.846;2023-11-21T08:47:43;9.30;97.10
52787;DHT22;38661;53.152;5.846;2023-11-21T08:50:10;9.30;97.00
52787;DHT22;38661;53.152;5.846;2023-11-21T08:52:40;9.30;97.00
52787;DHT22;38661;53.152;5.846;2023-11-21T08:55:06;9.30;97.00
52787;DHT22;38661;53.152;5.846;2023-11-21T08:57:38;9.30;97.00
52787;DHT22;38661;53.152;5.846;2023-11-21T09:00:05;9.30;96.90
52787;DHT22;38661;53.152;5.846;2023-11-21T09:02:35;9.40;96.90
52787;DHT22;38661;53.152;5.846;2023-11-21T09:05:05;9.30;96.90
52787;DHT22;38661;53.152;5.846;2023-11-21T09:07:31;9.40;96.80
52787;DHT22;38661;53.152;5.846;2023-11-21T09:09:57;9.40;96.80
52787;DHT22;38661;53.152;5.846;2023-11-21T09:12:23;9.40;96.70
52787;DHT22;38661;53.152;5.846;2023-11-21T09:14:50;9.40;96.80
52787;DHT22;38661;53.152;5.846;2023-11-21T09:17:16;9.40;96.50
52787;DHT22;38661;53.152;5.846;2023-11-21T09:19:42;9.40;96.50
52787;DHT22;38661;53.152;5.846;2023-11-21T09:22:10;9.40;96.40
52787;DHT22;38661;53.152;5.846;2023-11-21T09:24:36;9.40;96.30
52787;DHT22;38661;53.152;5.846;2023-11-21T09:27:03;9.40;96.30
52787;DHT22;38661;53.152;5.846;2023-11-21T09:29:30;9.40;96.20
52787;DHT22;38661;53.152;5.846;2023-11-21T09:31:57;9.40;96.20
52787;DHT22;38661;53.152;5.846;2023-11-21T09:34:25;9.40;96.10
52787;DHT22;38661;53.152;5.846;2023-11-21T09:36:51;9.50;96.20
52787;DHT22;38661;53.152;5.846;2023-11-21T09:39:17;9.50;96.10
52787;DHT22;38661;53.152;5.846;2023-11-21T09:41:49;9.50;96.10
52787;DHT22;38661;53.152;5.846;2023-11-21T09:44:18;9.50;96.00
52787;DHT22;38661;53.152;5.846;2023-11-21T09:46:47;9.50;96.00
52787;DHT22;38661;53.152;5.846;2023-11-21T09:49:15;9.50;95.90
52787;DHT22;38661;53.152;5.846;2023-11-21T09:51:45;9.50;95.90
52787;DHT22;38661;53.152;5.846;2023-11-21T09:54:13;9.50;95.80
52787;DHT22;38661;53.152;5.846;2023-11-21T09:56:41;9.50;95.60
52787;DHT22;38661;53.152;5.846;2023-11-21T09:59:13;9.60;95.70
52787;DHT22;38661;53.152;5.846;2023-11-21T10:01:42;9.60;95.70
52787;DHT22;38661;53.152;5.846;2023-11-21T10:04:08;9.70;95.70
52787;DHT22;38661;53.152;5.846;2023-11-21T10:06:41;9.80;95.80
52787;DHT22;38661;53.152;5.846;2023-11-21T10:09:14;9.80;95.70
52787;DHT22;38661;53.152;5.846;2023-11-21T10:11:41;9.80;95.30
52787;DHT22;38661;53.152;5.846;2023-11-21T10:14:10;9.90;95.40
52787;DHT22;38661;53.152;5.846;2023-11-21T10:16:38;9.80;95.40
52787;DHT22;38661;53.152;5.846;2023-11-21T10:19:08;9.80;95.30
52787;DHT22;38661;53.152;5.846;2023-11-21T10:21:35;9.80;95.10
52787;DHT22;38661;53.152;5.846;2023-11-21T10:24:01;9.80;95.00
52787;DHT22;38661;53.152;5.846;2023-11-21T10:26:28;9.80;94.90
52787;DHT22;38661;53.152;5.846;2023-11-21T10:29:02;9.80;94.80
52787;DHT22;38661;53.152;5.846;2023-11-21T10:31:32;9.80;94.90
52787;DHT22;38661;53.152;5.846;2023-11-21T10:34:17;9.80;94.80
52787;DHT22;38661;53.152;5.846;2023-11-21T10:36:44;9.90;94.90
52787;DHT22;38661;53.152;5.846;2023-11-21T10:39:13;9.80;94.60
52787;DHT22;38661;53.152;5.846;2023-11-21T10:41:39;9.80;94.80
52787;DHT22;38661;53.152;5.846;2023-11-21T10:44:05;9.90;94.70
52787;DHT22;38661;53.152;5.846;2023-11-21T10:46:33;9.80;94.50
52787;DHT22;38661;53.152;5.846;2023-11-21T10:49:00;9.80;94.40
52787;DHT22;38661;53.152;5.846;2023-11-21T10:51:25;9.70;94.40
52787;DHT22;38661;53.152;5.846;2023-11-21T10:53:52;9.70;94.50
52787;DHT22;38661;53.152;5.846;2023-11-21T10:56:18;9.70;94.40
52787;DHT22;38661;53.152;5.846;2023-11-21T10:58:49;9.70;94.20
52787;DHT22;38661;53.152;5.846;2023-11-21T11:01:18;9.60;94.00
52787;DHT22;38661;53.152;5.846;2023-11-21T11:03:44;9.60;94.40
52787;DHT22;38661;53.152;5.846;2023-11-21T11:06:10;9.70;94.40
52787;DHT22;38661;53.152;5.846;2023-11-21T11:08:38;9.70;94.40
52787;DHT22;38661;53.152;5.846;2023-11-21T11:11:05;9.70;94.20
52787;DHT22;38661;53.152;5.846;2023-11-21T11:13:31;9.60;93.90
52787;DHT22;38661;53.152;5.846;2023-11-21T11:16:01;9.70;94.20
52787;DHT22;38661;53.152;5.846;2023-11-21T11:18:30;9.80;94.20
52787;DHT22;38661;53.152;5.846;2023-11-21T11:21:07;10.10;94.10
52787;DHT22;38661;53.152;5.846;2023-11-21T11:26:42;10.20;93.90
52787;DHT22;38661;53.152;5.846;2023-11-21T11:32:03;10.10;93.60
52787;DHT22;38661;53.152;5.846;2023-11-21T11:35:04;10.10;93.10
52787;DHT22;38661;53.152;5.846;2023-11-21T11:37:32;10.40;91.50
52787;DHT22;38661;53.152;5.846;2023-11-21T11:39:59;10.60;92.50
52787;DHT22;38661;53.152;5.846;2023-11-21T11:42:26;10.90;92.00
52787;DHT22;38661;53.152;5.846;2023-11-21T11:44:53;11.20;91.30
52787;DHT22;38661;53.152;5.846;2023-11-21T11:47:29;11.40;90.20
52787;DHT22;38661;53.152;5.846;2023-11-21T11:50:09;11.50;90.90
52787;DHT22;38661;53.152;5.846;2023-11-21T11:52:48;11.80;89.90
52787;DHT22;38661;53.152;5.846;2023-11-21T11:55:21;12.00;87.50
52787;DHT22;38661;53.152;5.846;2023-11-21T11:57:54;12.00;86.40
52787;DHT22;38661;53.152;5.846;2023-11-21T12:02:54;12.50;86.30
52787;DHT22;38661;53.152;5.846;2023-11-21T12:05:22;12.40;85.40
52787;DHT22;38661;53.152;5.846;2023-11-21T12:07:59;12.20;82.50
52787;DHT22;38661;53.152;5.846;2023-11-21T12:10:28;12.20;84.20
52787;DHT22;38661;53.152;5.846;2023-11-21T12:13:08;12.20;83.00
52787;DHT22;38661;53.152;5.846;2023-11-21T12:15:36;12.30;85.00
52787;DHT22;38661;53.152;5.846;2023-11-21T12:18:02;12.20;82.80
52787;DHT22;38661;53.152;5.846;2023-11-21T12:20:30;12.40;85.60
52787;DHT22;38661;53.152;5.846;2023-11-21T12:22:58;12.50;83.90
52787;DHT22;38661;53.152;5.846;2023-11-21T12:25:28;12.60;83.30
52787;DHT22;38661;53.152;5.846;2023-11-21T12:27:56;12.50;84.50
52787;DHT22;38661;53.152;5.846;2023-11-21T12:30:28;12.30;81.70
52787;DHT22;38661;53.152;5.846;2023-11-21T12:32:57;12.20;83.30
52787;DHT22;38661;53.152;5.846;2023-11-21T12:35:41;12.40;83.70
52787;DHT22;38661;53.152;5.846;2023-11-21T12:38:09;12.50;82.60
52787;DHT22;38661;53.152;5.846;2023-11-21T12:40:35;12.70;81.60
52787;DHT22;38661;53.152;5.846;2023-11-21T12:43:01;12.90;80.50
52787;DHT22;38661;53.152;5.846;2023-11-21T12:45:29;12.80;79.70
52787;DHT22;38661;53.152;5.846;2023-11-21T12:48:00;12.50;79.70
52787;DHT22;38661;53.152;5.846;2023-11-21T12:50:33;12.40;80.10
52787;DHT22;38661;53.152;5.846;2023-11-21T12:53:10;12.10;81.70
52787;DHT22;38661;53.152;5.846;2023-11-21T12:55:44;11.90;80.80
52787;DHT22;38661;53.152;5.846;2023-11-21T12:58:15;12.00;82.40
52787;DHT22;38661;53.152;5.846;2023-11-21T13:00:48;12.10;81.70
52787;DHT22;38661;53.152;5.846;2023-11-21T13:03:16;12.40;82.00
52787;DHT22;38661;53.152;5.846;2023-11-21T13:05:49;12.50;80.00
52787;DHT22;38661;53.152;5.846;2023-11-21T13:08:16;12.70;81.10
52787;DHT22;38661;53.152;5.846;2023-11-21T13:10:46;13.00;81.20
52787;DHT22;38661;53.152;5.846;2023-11-21T13:13:14;13.10;79.10
52787;DHT22;38661;53.152;5.846;2023-11-21T13:15:59;13.00;80.10
52787;DHT22;38661;53.152;5.846;2023-11-21T13:18:33;12.80;79.70
52787;DHT22;38661;53.152;5.846;2023-11-21T13:21:02;12.50;80.40
52787;DHT22;38661;53.152;5.846;2023-11-21T13:23:37;12.30;79.90
52787;DHT22;38661;53.152;5.846;2023-11-21T13:26:03;12.40;79.80
52787;DHT22;38661;53.152;5.846;2023-11-21T13:28:29;12.70;80.00
52787;DHT22;38661;53.152;5.846;2023-11-21T13:31:02;12.90;78.60
52787;DHT22;38661;53.152;5.846;2023-11-21T13:34:03;13.30;78.10
52787;DHT22;38661;53.152;5.846;2023-11-21T13:36:33;13.70;77.20
52787;DHT22;38661;53.152;5.846;2023-11-21T13:39:01;13.70;77.10
52787;DHT22;38661;53.152;5.846;2023-11-21T13:41:40;13.40;77.70
52787;DHT22;38661;53.152;5.846;2023-11-21T13:44:07;13.00;77.30
52787;DHT22;38661;53.152;5.846;2023-11-21T13:46:51;12.60;77.50
52787;DHT22;38661;53.152;5.846;2023-11-21T13:49:17;12.50;78.60
52787;DHT22;38661;53.152;5.846;2023-11-21T13:51:46;12.50;78.90
52787;DHT22;38661;53.152;5.846;2023-11-21T13:54:17;12.50;79.50
52787;DHT22;38661;53.152;5.846;2023-11-21T13:56:43;12.20;79.40
52787;DHT22;38661;53.152;5.846;2023-11-21T13:59:11;12.00;79.70
52787;DHT22;38661;53.152;5.846;2023-11-21T14:01:52;11.80;79.80
52787;DHT22;38661;53.152;5.846;2023-11-21T14:04:26;11.50;80.40
52787;DHT22;38661;53.152;5.846;2023-11-21T14:07:26;11.30;80.80
52787;DHT22;38661;53.152;5.846;2023-11-21T14:10:01;11.00;81.20
52787;DHT22;38661;53.152;5.846;2023-11-21T14:12:27;10.90;81.90
52787;DHT22;38661;53.152;5.846;2023-11-21T14:14:54;10.80;82.10
52787;DHT22;38661;53.152;5.846;2023-11-21T14:17:20;10.70;82.60
52787;DHT22;38661;53.152;5.846;2023-11-21T14:19:50;10.60;83.10
52787;DHT22;38661;53.152;5.846;2023-11-21T14:22:18;10.50;83.10
52787;DHT22;38661;53.152;5.846;2023-11-21T14:24:47;10.40;83.40
52787;DHT22;38661;53.152;5.846;2023-11-21T14:27:15;10.30;83.70
52787;DHT22;38661;53.152;5.846;2023-11-21T14:29:41;10.20;83.90
52787;DHT22;38661;53.152;5.846;2023-11-21T14:32:10;10.30;84.40
52787;DHT22;38661;53.152;5.846;2023-11-21T14:34:35;10.20;84.50
52787;DHT22;38661;53.152;5.846;2023-11-21T14:37:02;10.10;84.80
52787;DHT22;38661;53.152;5.846;2023-11-21T14:39:28;10.00;85.30
52787;DHT22;38661;53.152;5.846;2023-11-21T14:41:55;9.90;85.70
52787;DHT22;38661;53.152;5.846;2023-11-21T14:44:26;9.90;86.30
52787;DHT22;38661;53.152;5.846;2023-11-21T14:46:54;9.70;86.60
52787;DHT22;38661;53.152;5.846;2023-11-21T14:49:22;9.60;86.70
52787;DHT22;38661;53.152;5.846;2023-11-21T14:51:51;9.60;87.20
52787;DHT22;38661;53.152;5.846;2023-11-21T14:54:32;9.50;87.50
52787;DHT22;38661;53.152;5.846;2023-11-21T14:57:11;9.40;87.80
52787;DHT22;38661;53.152;5.846;2023-11-21T14:59:47;9.40;88.00
52787;DHT22;38661;53.152;5.846;2023-11-21T15:02:23;9.30;88.00
52787;DHT22;38661;53.152;5.846;2023-11-21T15:05:10;9.30;88.20
52787;DHT22;38661;53.152;5.846;2023-11-21T15:07:41;9.30;88.30
52787;DHT22;38661;53.152;5.846;2023-11-21T15:10:07;9.20;88.60
52787;DHT22;38661;53.152;5.846;2023-11-21T15:12:40;9.20;88.70
52787;DHT22;38661;53.152;5.846;2023-11-21T15:15:08;9.10;88.80
52787;DHT22;38661;53.152;5.846;2023-11-21T15:17:36;9.10;88.90
52787;DHT22;38661;53.152;5.846;2023-11-21T15:20:03;9.10;88.90
52787;DHT22;38661;53.152;5.846;2023-11-21T15:22:29;9.00;89.00
52787;DHT22;38661;53.152;5.846;2023-11-21T15:24:55;9.00;89.10
52787;DHT22;38661;53.152;5.846;2023-11-21T15:27:23;9.00;89.30
52787;DHT22;38661;53.152;5.846;2023-11-21T15:29:49;9.00;89.30
52787;DHT22;38661;53.152;5.846;2023-11-21T15:32:15;8.90;89.40
52787;DHT22;38661;53.152;5.846;2023-11-21T15:34:41;8.90;89.40
52787;DHT22;38661;53.152;5.846;2023-11-21T15:37:07;8.90;89.50
52787;DHT22;38661;53.152;5.846;2023-11-21T15:39:37;8.80;89.50
52787;DHT22;38661;53.152;5.846;2023-11-21T15:42:04;8.70;89.10
52787;DHT22;38661;53.152;5.846;2023-11-21T15:44:32;8.70;89.20
52787;DHT22;38661;53.152;5.846;2023-11-21T15:46:59;8.70;89.30
52787;DHT22;38661;53.152;5.846;2023-11-21T15:49:25;8.60;89.30
52787;DHT22;38661;53.152;5.846;2023-11-21T15:51:53;8.60;89.30